POBEDA9 DNMM-DNMM
Flight info
| Callsign | POBEDA9 |
|---|---|
| Flight time | 0h 51m |
| Altitude | 26000 |
| Route | ILKEL1Q ILKEL DCT BUDSI BUDSI1N |
| Aircraft | SU27/M-SDE3GILORVW/S |
Departure
| Time | 2026-05-09 09:39 |
|---|---|
| Airport | Murtala Muhammed International Airport (DNMM) |
Arrival
| Time | 2026-05-09 10:31 |
|---|---|
| Airport | Murtala Muhammed International Airport (DNMM) |
| Time | Latitude | Longitude | Altitude | Speed | Heading |
|---|---|---|---|---|---|
| 2026-05-09 09:20 | 6.58046 | 3.33137 | 53 ft | 0 kts | 90° |
| 2026-05-09 09:22 | 6.58046 | 3.33136 | 53 ft | 0 kts | 90° |
| 2026-05-09 09:33 | 6.58041 | 3.33161 | 51 ft | 8 kts | 117° |
| 2026-05-09 09:34 | 6.57992 | 3.33176 | 51 ft | 7 kts | 181° |
| 2026-05-09 09:34 | 6.57955 | 3.33170 | 51 ft | 2 kts | 230° |
| 2026-05-09 09:34 | 6.57952 | 3.33165 | 49 ft | 2 kts | 245° |
| 2026-05-09 09:36 | 6.57595 | 3.33054 | 58 ft | 16 kts | 178° |
| 2026-05-09 09:36 | 6.57485 | 3.33056 | 57 ft | 15 kts | 179° |
| 2026-05-09 09:36 | 6.57384 | 3.33057 | 57 ft | 14 kts | 180° |
| 2026-05-09 09:37 | 6.57290 | 3.33058 | 57 ft | 13 kts | 179° |
| 2026-05-09 09:37 | 6.57211 | 3.33037 | 58 ft | 10 kts | 230° |
| 2026-05-09 09:37 | 6.57198 | 3.32993 | 65 ft | 5 kts | 272° |
| 2026-05-09 09:37 | 6.57212 | 3.32966 | 66 ft | 7 kts | 307° |
| 2026-05-09 09:38 | 6.57273 | 3.32914 | 68 ft | 13 kts | 354° |
| 2026-05-09 09:38 | 6.57319 | 3.32914 | 71 ft | 0 kts | 359° |
| 2026-05-09 09:39 | 6.57425 | 3.32914 | 71 ft | 55 kts | 359° |
| 2026-05-09 09:39 | 6.58584 | 3.32899 | 428 ft | 276 kts | 358° |
| 2026-05-09 09:39 | 6.60881 | 3.32912 | 1025 ft | 370 kts | 360° |
| 2026-05-09 09:40 | 6.63579 | 3.32950 | 2681 ft | 405 kts | 0° |
| 2026-05-09 09:40 | 6.66488 | 3.32990 | 4367 ft | 438 kts | 1° |
| 2026-05-09 09:40 | 6.69720 | 3.33033 | 4387 ft | 485 kts | 1° |
| 2026-05-09 09:40 | 6.73190 | 3.33081 | 4288 ft | 510 kts | 1° |
| 2026-05-09 09:41 | 6.76805 | 3.33130 | 4302 ft | 527 kts | 1° |
| 2026-05-09 09:41 | 6.80519 | 3.33181 | 4333 ft | 539 kts | 1° |
| 2026-05-09 09:41 | 6.84295 | 3.33229 | 4385 ft | 547 kts | 1° |
| 2026-05-09 09:41 | 6.88117 | 3.33275 | 4456 ft | 552 kts | 1° |
| 2026-05-09 09:42 | 6.91845 | 3.33317 | 6030 ft | 517 kts | 2° |
| 2026-05-09 09:42 | 6.95342 | 3.33346 | 7931 ft | 487 kts | 3° |
| 2026-05-09 09:42 | 6.98604 | 3.33370 | 9636 ft | 462 kts | 5° |
| 2026-05-09 09:42 | 7.01874 | 3.33446 | 9712 ft | 482 kts | 5° |
| 2026-05-09 09:43 | 7.05301 | 3.33525 | 9496 ft | 497 kts | 5° |
| 2026-05-09 09:43 | 7.08710 | 3.33598 | 10476 ft | 483 kts | 5° |
| 2026-05-09 09:43 | 7.12024 | 3.33779 | 11328 ft | 473 kts | 12° |
| 2026-05-09 09:43 | 7.15185 | 3.34748 | 11311 ft | 480 kts | 28° |
| 2026-05-09 09:44 | 7.18029 | 3.36603 | 10694 ft | 496 kts | 43° |
| 2026-05-09 09:44 | 7.20298 | 3.39252 | 10329 ft | 506 kts | 58° |
| 2026-05-09 09:44 | 7.21857 | 3.42441 | 10143 ft | 511 kts | 71° |
| 2026-05-09 09:44 | 7.22812 | 3.45914 | 9864 ft | 516 kts | 78° |
| 2026-05-09 09:45 | 7.23446 | 3.49423 | 10076 ft | 505 kts | 79° |
| 2026-05-09 09:45 | 7.24053 | 3.52892 | 9961 ft | 501 kts | 79° |
| 2026-05-09 09:45 | 7.24652 | 3.56324 | 10107 ft | 490 kts | 79° |
| 2026-05-09 09:45 | 7.25210 | 3.59557 | 11642 ft | 440 kts | 80° |
| 2026-05-09 09:46 | 7.25683 | 3.62348 | 14337 ft | 388 kts | 81° |
| 2026-05-09 09:46 | 7.26142 | 3.65092 | 14748 ft | 417 kts | 81° |
| 2026-05-09 09:46 | 7.26650 | 3.68167 | 13598 ft | 474 kts | 81° |
| 2026-05-09 09:46 | 7.27164 | 3.71602 | 11421 ft | 517 kts | 86° |
| 2026-05-09 09:47 | 7.27445 | 3.75387 | 9655 ft | 560 kts | 92° |
| 2026-05-09 09:47 | 7.27063 | 3.79299 | 9318 ft | 570 kts | 96° |
| 2026-05-09 09:47 | 7.26516 | 3.83317 | 8435 ft | 587 kts | 97° |
| 2026-05-09 09:47 | 7.25939 | 3.87357 | 8850 ft | 552 kts | 98° |
| 2026-05-09 09:48 | 7.25373 | 3.90812 | 9336 ft | 464 kts | 98° |
| 2026-05-09 09:48 | 7.24935 | 3.93245 | 9339 ft | 411 kts | 99° |
| 2026-05-09 09:50 | 7.24837 | 3.93767 | 9363 ft | 401 kts | 99° |
| 2026-05-09 09:50 | 7.24319 | 3.96362 | 9453 ft | 350 kts | 100° |
| 2026-05-09 09:50 | 7.23832 | 3.98572 | 9997 ft | 298 kts | 100° |
| 2026-05-09 09:51 | 7.23459 | 4.00089 | 11988 ft | 69 kts | 105° |
| 2026-05-09 09:51 | 7.23346 | 4.00210 | 12756 ft | 35 kts | 107° |
| 2026-05-09 09:51 | 7.22981 | 4.01483 | 11151 ft | 275 kts | 103° |
| 2026-05-09 09:51 | 7.22429 | 4.03584 | 10244 ft | 342 kts | 101° |
| 2026-05-09 09:52 | 7.21808 | 4.06100 | 8927 ft | 398 kts | 104° |
| 2026-05-09 09:52 | 7.21128 | 4.08889 | 7296 ft | 415 kts | 97° |
| 2026-05-09 09:52 | 7.21061 | 4.11709 | 6909 ft | 388 kts | 85° |
| 2026-05-09 09:52 | 7.21445 | 4.14308 | 6678 ft | 364 kts | 77° |
| 2026-05-09 09:53 | 7.22123 | 4.16637 | 6667 ft | 340 kts | 71° |
| 2026-05-09 09:53 | 7.23024 | 4.18838 | 5780 ft | 344 kts | 66° |
| 2026-05-09 09:53 | 7.24137 | 4.21023 | 4480 ft | 360 kts | 62° |
| 2026-05-09 09:53 | 7.25510 | 4.23144 | 3319 ft | 367 kts | 51° |
| 2026-05-09 09:54 | 7.27401 | 4.24944 | 1990 ft | 374 kts | 39° |
| 2026-05-09 09:54 | 7.29380 | 4.26431 | 1825 ft | 334 kts | 13° |
| 2026-05-09 09:54 | 7.31406 | 4.26165 | 2062 ft | 289 kts | 347° |
| 2026-05-09 09:54 | 7.33381 | 4.26027 | 1732 ft | 279 kts | 2° |
| 2026-05-09 09:55 | 7.35221 | 4.26347 | 1659 ft | 263 kts | 13° |
| 2026-05-09 09:55 | 7.36894 | 4.27005 | 1554 ft | 249 kts | 27° |
| 2026-05-09 09:55 | 7.38374 | 4.27781 | 1669 ft | 223 kts | 18° |
| 2026-05-09 09:55 | 7.39808 | 4.27867 | 1734 ft | 207 kts | 335° |
| 2026-05-09 09:56 | 7.41075 | 4.27290 | 1879 ft | 196 kts | 333° |
| 2026-05-09 09:56 | 7.42328 | 4.26711 | 1821 ft | 200 kts | 332° |
| 2026-05-09 09:56 | 7.43557 | 4.26040 | 1748 ft | 203 kts | 325° |
| 2026-05-09 09:56 | 7.44620 | 4.25119 | 1803 ft | 198 kts | 302° |
| 2026-05-09 09:57 | 7.45063 | 4.23889 | 1871 ft | 190 kts | 275° |
| 2026-05-09 09:57 | 7.45206 | 4.22530 | 1710 ft | 198 kts | 274° |
| 2026-05-09 09:57 | 7.45346 | 4.21146 | 1732 ft | 203 kts | 275° |
| 2026-05-09 09:57 | 7.45507 | 4.19666 | 1474 ft | 220 kts | 278° |
| 2026-05-09 09:58 | 7.45821 | 4.18120 | 1419 ft | 222 kts | 281° |
| 2026-05-09 09:58 | 7.46139 | 4.16587 | 1703 ft | 235 kts | 281° |
| 2026-05-09 09:58 | 7.46343 | 4.14915 | 1652 ft | 238 kts | 265° |
| 2026-05-09 09:58 | 7.45777 | 4.13462 | 1425 ft | 230 kts | 242° |
| 2026-05-09 09:59 | 7.44962 | 4.11950 | 1162 ft | 246 kts | 241° |
| 2026-05-09 09:59 | 7.44333 | 4.10350 | 1391 ft | 246 kts | 256° |
| 2026-05-09 09:59 | 7.43945 | 4.08473 | 1463 ft | 304 kts | 254° |
| 2026-05-09 09:59 | 7.43151 | 4.06430 | 1282 ft | 323 kts | 244° |
| 2026-05-09 10:00 | 7.41970 | 4.04459 | 1248 ft | 336 kts | 232° |
| 2026-05-09 10:00 | 7.40550 | 4.02542 | 1144 ft | 347 kts | 231° |
| 2026-05-09 10:00 | 7.39087 | 4.00576 | 965 ft | 356 kts | 237° |
| 2026-05-09 10:00 | 7.37523 | 3.98805 | 895 ft | 322 kts | 216° |
| 2026-05-09 10:01 | 7.35847 | 3.97498 | 808 ft | 286 kts | 218° |
| 2026-05-09 10:01 | 7.34735 | 3.96164 | 999 ft | 240 kts | 298° |
| 2026-05-09 10:01 | 7.36022 | 3.96091 | 1075 ft | 215 kts | 39° |
| 2026-05-09 10:01 | 7.37050 | 3.97153 | 1083 ft | 208 kts | 46° |
| 2026-05-09 10:02 | 7.38276 | 3.98420 | 2904 ft | 318 kts | 45° |
| 2026-05-09 10:02 | 7.40076 | 4.00255 | 3305 ft | 401 kts | 46° |
| 2026-05-09 10:02 | 7.41993 | 4.02495 | 4552 ft | 443 kts | 56° |
| 2026-05-09 10:02 | 7.43117 | 4.05392 | 6203 ft | 456 kts | 82° |
| 2026-05-09 10:03 | 7.43211 | 4.08697 | 6577 ft | 495 kts | 94° |
| 2026-05-09 10:03 | 7.42878 | 4.12234 | 6718 ft | 514 kts | 96° |
| 2026-05-09 10:03 | 7.42451 | 4.15925 | 6079 ft | 546 kts | 97° |
| 2026-05-09 10:03 | 7.41953 | 4.19827 | 4893 ft | 579 kts | 98° |
| 2026-05-09 10:04 | 7.41429 | 4.23889 | 5542 ft | 585 kts | 97° |
| 2026-05-09 10:04 | 7.41038 | 4.27982 | 8031 ft | 588 kts | 94° |
| 2026-05-09 10:04 | 7.40777 | 4.32379 | 11743 ft | 634 kts | 92° |
| 2026-05-09 10:04 | 7.40755 | 4.36723 | 14128 ft | 606 kts | 86° |
| 2026-05-09 10:05 | 7.41475 | 4.40798 | 16580 ft | 584 kts | 72° |
| 2026-05-09 10:05 | 7.42190 | 4.44695 | 18793 ft | 563 kts | 99° |
| 2026-05-09 10:05 | 7.40566 | 4.48252 | 19399 ft | 582 kts | 136° |
| 2026-05-09 10:05 | 7.36742 | 4.49583 | 18638 ft | 622 kts | 185° |
| 2026-05-09 10:06 | 7.32550 | 4.48278 | 17193 ft | 649 kts | 209° |
| 2026-05-09 10:06 | 7.29226 | 4.45161 | 16178 ft | 661 kts | 234° |
| 2026-05-09 10:06 | 7.26817 | 4.41215 | 15494 ft | 662 kts | 241° |
| 2026-05-09 10:06 | 7.24910 | 4.37074 | 15361 ft | 662 kts | 246° |
| 2026-05-09 10:07 | 7.23108 | 4.32744 | 14976 ft | 678 kts | 247° |
| 2026-05-09 10:07 | 7.21425 | 4.28359 | 15908 ft | 667 kts | 251° |
| 2026-05-09 10:07 | 7.20202 | 4.23843 | 16403 ft | 684 kts | 257° |
| 2026-05-09 10:07 | 7.19167 | 4.18849 | 17039 ft | 765 kts | 259° |
| 2026-05-09 10:08 | 7.18170 | 4.13553 | 16935 ft | 747 kts | 260° |
| 2026-05-09 10:08 | 7.17739 | 4.10206 | 17238 ft | 708 kts | 266° |
| 2026-05-09 10:08 | 7.17690 | 4.05362 | 17422 ft | 682 kts | 271° |
| 2026-05-09 10:08 | 7.17831 | 4.00606 | 17237 ft | 677 kts | 272° |
| 2026-05-09 10:09 | 7.18006 | 3.95873 | 17313 ft | 675 kts | 272° |
| 2026-05-09 10:09 | 7.18128 | 3.91106 | 16658 ft | 682 kts | 269° |
| 2026-05-09 10:09 | 7.17711 | 3.86531 | 19262 ft | 638 kts | 261° |
| 2026-05-09 10:09 | 7.16974 | 3.82164 | 21243 ft | 631 kts | 259° |
| 2026-05-09 10:10 | 7.16199 | 3.77721 | 22419 ft | 678 kts | 260° |
| 2026-05-09 10:10 | 7.15364 | 3.72794 | 23488 ft | 746 kts | 259° |
| 2026-05-09 10:10 | 7.14446 | 3.67495 | 23564 ft | 775 kts | 261° |
| 2026-05-09 10:10 | 7.13649 | 3.62110 | 22959 ft | 783 kts | 261° |
| 2026-05-09 10:11 | 7.12711 | 3.56684 | 22063 ft | 791 kts | 259° |
| 2026-05-09 10:11 | 7.12258 | 3.51220 | 22364 ft | 778 kts | 274° |
| 2026-05-09 10:11 | 7.12827 | 3.45884 | 21616 ft | 745 kts | 277° |
| 2026-05-09 10:11 | 7.13562 | 3.40869 | 20003 ft | 702 kts | 283° |
| 2026-05-09 10:12 | 7.14811 | 3.36240 | 18305 ft | 676 kts | 289° |
| 2026-05-09 10:12 | 7.17144 | 3.32300 | 18694 ft | 641 kts | 310° |
| 2026-05-09 10:12 | 7.20223 | 3.29083 | 17526 ft | 639 kts | 322° |
| 2026-05-09 10:12 | 7.23928 | 3.26670 | 14262 ft | 634 kts | 335° |
| 2026-05-09 10:13 | 7.28152 | 3.25518 | 10899 ft | 605 kts | 357° |
| 2026-05-09 10:13 | 7.32156 | 3.25112 | 9311 ft | 553 kts | 355° |
| 2026-05-09 10:13 | 7.35753 | 3.24340 | 9024 ft | 504 kts | 347° |
| 2026-05-09 10:13 | 7.39003 | 3.23254 | 8505 ft | 483 kts | 341° |
| 2026-05-09 10:14 | 7.42011 | 3.21932 | 8536 ft | 462 kts | 337° |
| 2026-05-09 10:14 | 7.44827 | 3.20463 | 8522 ft | 460 kts | 334° |
| 2026-05-09 10:14 | 7.47522 | 3.18875 | 9295 ft | 433 kts | 332° |
| 2026-05-09 10:14 | 7.50089 | 3.17303 | 9531 ft | 432 kts | 333° |
| 2026-05-09 10:15 | 7.52665 | 3.15748 | 9633 ft | 431 kts | 333° |
| 2026-05-09 10:15 | 7.55298 | 3.14175 | 9076 ft | 447 kts | 334° |
| 2026-05-09 10:15 | 7.58074 | 3.12685 | 8702 ft | 453 kts | 336° |
| 2026-05-09 10:15 | 7.60975 | 3.11465 | 8545 ft | 452 kts | 345° |
| 2026-05-09 10:16 | 7.63997 | 3.10655 | 8251 ft | 446 kts | 350° |
| 2026-05-09 10:16 | 7.67075 | 3.10017 | 7342 ft | 456 kts | 356° |
| 2026-05-09 10:16 | 7.70173 | 3.10098 | 7481 ft | 435 kts | 28° |
| 2026-05-09 10:16 | 7.70356 | 3.12182 | 7154 ft | 396 kts | 166° |
| 2026-05-09 10:17 | 7.67456 | 3.12491 | 5388 ft | 448 kts | 173° |
| 2026-05-09 10:17 | 7.65315 | 3.14005 | 6648 ft | 379 kts | 89° |
| 2026-05-09 10:17 | 7.65615 | 3.16669 | 6149 ft | 406 kts | 82° |
| 2026-05-09 10:17 | 7.66013 | 3.19625 | 4695 ft | 446 kts | 84° |
| 2026-05-09 10:18 | 7.66263 | 3.22492 | 6211 ft | 188 kts | 90° |
| 2026-05-09 10:18 | 7.66216 | 3.24210 | 12839 ft | 359 kts | 112° |
| 2026-05-09 10:18 | 7.64432 | 3.27045 | 9869 ft | 599 kts | 126° |
| 2026-05-09 10:18 | 7.61251 | 3.30220 | 7351 ft | 659 kts | 142° |
| 2026-05-09 10:19 | 7.57477 | 3.32596 | 5453 ft | 624 kts | 158° |
| 2026-05-09 10:19 | 7.53412 | 3.33513 | 4664 ft | 576 kts | 174° |
| 2026-05-09 10:19 | 7.49505 | 3.33655 | 3363 ft | 549 kts | 180° |
| 2026-05-09 10:19 | 7.45817 | 3.33589 | 3164 ft | 513 kts | 181° |
| 2026-05-09 10:20 | 7.42347 | 3.33497 | 2402 ft | 468 kts | 182° |
| 2026-05-09 10:20 | 7.39267 | 3.33404 | 2253 ft | 418 kts | 182° |
| 2026-05-09 10:20 | 7.36485 | 3.33289 | 2097 ft | 386 kts | 182° |
| 2026-05-09 10:20 | 7.33888 | 3.33209 | 1948 ft | 362 kts | 181° |
| 2026-05-09 10:21 | 7.31428 | 3.33181 | 1811 ft | 345 kts | 181° |
| 2026-05-09 10:21 | 7.29055 | 3.33136 | 1848 ft | 337 kts | 182° |
| 2026-05-09 10:21 | 7.26732 | 3.33081 | 1967 ft | 330 kts | 182° |
| 2026-05-09 10:21 | 7.24451 | 3.33047 | 1966 ft | 327 kts | 181° |
| 2026-05-09 10:22 | 7.22159 | 3.33063 | 1715 ft | 328 kts | 180° |
| 2026-05-09 10:22 | 7.19909 | 3.33088 | 1805 ft | 319 kts | 179° |
| 2026-05-09 10:22 | 7.17711 | 3.33148 | 1840 ft | 310 kts | 178° |
| 2026-05-09 10:22 | 7.15577 | 3.33257 | 1920 ft | 304 kts | 178° |
| 2026-05-09 10:23 | 7.13504 | 3.33375 | 1965 ft | 303 kts | 178° |
| 2026-05-09 10:23 | 7.11383 | 3.33518 | 1839 ft | 306 kts | 177° |
| 2026-05-09 10:23 | 7.09239 | 3.33634 | 1813 ft | 304 kts | 178° |
| 2026-05-09 10:23 | 7.07122 | 3.33696 | 1833 ft | 302 kts | 179° |
| 2026-05-09 10:24 | 7.05022 | 3.33728 | 1681 ft | 307 kts | 180° |
| 2026-05-09 10:24 | 7.02909 | 3.33760 | 1849 ft | 298 kts | 179° |
| 2026-05-09 10:24 | 7.00851 | 3.33819 | 1952 ft | 296 kts | 179° |
| 2026-05-09 10:24 | 6.98780 | 3.33892 | 1818 ft | 301 kts | 180° |
| 2026-05-09 10:25 | 6.96658 | 3.33932 | 1573 ft | 308 kts | 180° |
| 2026-05-09 10:25 | 6.94557 | 3.34003 | 1426 ft | 297 kts | 178° |
| 2026-05-09 10:25 | 6.92566 | 3.34123 | 1472 ft | 278 kts | 175° |
| 2026-05-09 10:25 | 6.90685 | 3.34326 | 1457 ft | 270 kts | 174° |
| 2026-05-09 10:26 | 6.88858 | 3.34480 | 1441 ft | 260 kts | 180° |
| 2026-05-09 10:26 | 6.87061 | 3.34437 | 1366 ft | 257 kts | 183° |
| 2026-05-09 10:26 | 6.85282 | 3.34343 | 1355 ft | 251 kts | 185° |
| 2026-05-09 10:26 | 6.83545 | 3.34201 | 1374 ft | 248 kts | 185° |
| 2026-05-09 10:27 | 6.81809 | 3.34049 | 1276 ft | 248 kts | 186° |
| 2026-05-09 10:27 | 6.80117 | 3.33861 | 1322 ft | 245 kts | 188° |
| 2026-05-09 10:27 | 6.78466 | 3.33608 | 1425 ft | 239 kts | 191° |
| 2026-05-09 10:27 | 6.76818 | 3.33333 | 1404 ft | 238 kts | 188° |
| 2026-05-09 10:28 | 6.75151 | 3.33131 | 1213 ft | 245 kts | 187° |
| 2026-05-09 10:28 | 6.73459 | 3.32992 | 1281 ft | 241 kts | 182° |
| 2026-05-09 10:28 | 6.71783 | 3.33002 | 1252 ft | 246 kts | 178° |
| 2026-05-09 10:28 | 6.70065 | 3.33089 | 1143 ft | 251 kts | 178° |
| 2026-05-09 10:29 | 6.68294 | 3.33138 | 935 ft | 257 kts | 179° |
| 2026-05-09 10:29 | 6.66540 | 3.33151 | 930 ft | 253 kts | 186° |
| 2026-05-09 10:29 | 6.64797 | 3.32946 | 797 ft | 252 kts | 188° |
| 2026-05-09 10:29 | 6.63068 | 3.32836 | 620 ft | 246 kts | 179° |
| 2026-05-09 10:30 | 6.61395 | 3.32876 | 358 ft | 236 kts | 180° |
| 2026-05-09 10:30 | 6.59781 | 3.32889 | 120 ft | 226 kts | 181° |
| 2026-05-09 10:30 | 6.58337 | 3.32896 | 81 ft | 166 kts | 178° |
| 2026-05-09 10:30 | 6.57545 | 3.32912 | 73 ft | 65 kts | 180° |
| 2026-05-09 10:31 | 6.57276 | 3.32928 | 66 ft | 35 kts | 158° |
| 2026-05-09 10:31 | 6.57204 | 3.33057 | 56 ft | 4 kts | 50° |
| 2026-05-09 10:31 | 6.57208 | 3.33063 | 56 ft | 0 kts | 44° |
| 2026-05-09 10:31 | 6.57254 | 3.33064 | 57 ft | 11 kts | 355° |
| 2026-05-09 10:32 | 6.57314 | 3.33061 | 57 ft | 6 kts | 355° |
| 2026-05-09 10:32 | 6.57329 | 3.33060 | 57 ft | 0 kts | 356° |